createdAt,value
2023-05-16T00:01:14.679Z,10.80
2023-05-16T00:04:01.549Z,10.80
2023-05-16T00:06:48.360Z,10.70
2023-05-16T00:09:35.089Z,10.70
2023-05-16T00:12:22.802Z,10.70
2023-05-16T00:15:12.952Z,10.70
2023-05-16T00:17:59.825Z,10.60
2023-05-16T00:20:46.671Z,10.60
2023-05-16T00:23:33.440Z,10.60
2023-05-16T00:26:20.745Z,10.60
2023-05-16T00:29:07.445Z,10.60
2023-05-16T00:31:54.322Z,10.60
2023-05-16T00:34:41.223Z,10.50
2023-05-16T00:37:28.095Z,10.50
2023-05-16T00:40:14.915Z,10.50
2023-05-16T00:43:01.670Z,10.50
2023-05-16T00:45:48.407Z,10.70
2023-05-16T00:48:35.304Z,10.70
2023-05-16T00:51:22.032Z,10.80
2023-05-16T00:54:08.894Z,10.90
2023-05-16T00:56:56.674Z,11.00
2023-05-16T00:59:44.491Z,11.10
2023-05-16T01:02:31.646Z,11.20
2023-05-16T01:05:18.469Z,11.30
2023-05-16T01:08:05.171Z,11.30
2023-05-16T01:11:05.001Z,11.30
2023-05-16T01:14:10.406Z,11.30
2023-05-16T01:17:07.263Z,11.30
2023-05-16T01:20:02.851Z,11.40
2023-05-16T01:23:00.472Z,11.40
2023-05-16T01:25:56.711Z,11.40
2023-05-16T01:28:45.465Z,11.50
2023-05-16T01:31:32.165Z,11.60
2023-05-16T01:34:18.928Z,11.60
2023-05-16T01:37:23.702Z,11.60
2023-05-16T01:40:16.645Z,11.70
2023-05-16T01:43:05.408Z,11.70
2023-05-16T01:45:55.707Z,11.70
2023-05-16T01:48:44.814Z,11.60
2023-05-16T01:51:33.786Z,11.50
2023-05-16T01:54:21.989Z,11.50
2023-05-16T01:57:09.054Z,11.50
2023-05-16T01:59:57.673Z,11.40
2023-05-16T02:02:44.769Z,11.40
2023-05-16T02:05:31.645Z,11.40
2023-05-16T02:08:18.545Z,11.30
2023-05-16T02:11:05.377Z,11.30
2023-05-16T02:13:52.055Z,11.30
2023-05-16T02:16:39.094Z,11.30
2023-05-16T02:19:25.964Z,11.40
2023-05-16T02:22:12.788Z,11.40
2023-05-16T02:25:01.070Z,11.40
2023-05-16T02:27:47.842Z,11.40
2023-05-16T02:30:34.628Z,11.40
2023-05-16T02:33:21.392Z,11.40
2023-05-16T02:36:08.251Z,11.50
2023-05-16T02:38:54.979Z,11.60
2023-05-16T02:41:41.759Z,11.60
2023-05-16T02:44:28.433Z,11.70
2023-05-16T02:47:15.149Z,11.60
2023-05-16T02:50:01.898Z,11.70
2023-05-16T02:52:48.618Z,11.70
2023-05-16T02:55:35.799Z,11.80
2023-05-16T02:58:22.688Z,11.70
2023-05-16T03:01:09.884Z,11.70
2023-05-16T03:03:57.097Z,11.70
2023-05-16T03:06:44.399Z,11.70
2023-05-16T03:09:31.336Z,11.80
2023-05-16T03:12:18.099Z,11.90
2023-05-16T03:15:05.143Z,11.90
2023-05-16T03:17:51.899Z,11.90
2023-05-16T03:20:38.647Z,11.90
2023-05-16T03:23:25.539Z,12.00
2023-05-16T03:26:12.355Z,11.90
2023-05-16T03:28:59.294Z,11.90
2023-05-16T03:31:46.405Z,11.90
2023-05-16T03:34:33.327Z,11.90
2023-05-16T03:37:20.082Z,11.80
2023-05-16T03:40:07.389Z,11.80
2023-05-16T03:42:54.107Z,11.70
2023-05-16T03:45:40.856Z,11.80
2023-05-16T03:48:27.657Z,11.80
2023-05-16T03:51:14.385Z,11.80
2023-05-16T03:54:01.527Z,11.80
2023-05-16T03:56:48.284Z,11.90
2023-05-16T03:59:35.143Z,11.90
2023-05-16T04:02:22.359Z,11.90
2023-05-16T04:05:10.641Z,11.80
2023-05-16T04:07:57.402Z,11.80
2023-05-16T04:10:44.151Z,11.80
2023-05-16T04:13:31.116Z,11.80
2023-05-16T04:16:17.862Z,11.80
2023-05-16T04:19:04.666Z,11.80
2023-05-16T04:21:52.218Z,11.80
2023-05-16T04:24:38.932Z,11.80
2023-05-16T04:27:26.960Z,11.80
2023-05-16T04:30:14.644Z,11.80
2023-05-16T04:33:01.608Z,11.80
2023-05-16T04:35:48.678Z,11.90
2023-05-16T04:38:35.415Z,11.90
2023-05-16T04:41:22.935Z,11.90
2023-05-16T04:44:11.246Z,11.90
2023-05-16T04:46:58.103Z,11.90
2023-05-16T04:49:44.914Z,11.90
2023-05-16T04:52:31.677Z,11.90
2023-05-16T04:55:18.409Z,11.90
2023-05-16T04:58:05.411Z,11.90
2023-05-16T05:00:52.568Z,11.90
2023-05-16T05:03:39.288Z,11.90
2023-05-16T05:06:26.300Z,12.00
2023-05-16T05:09:13.437Z,12.00
2023-05-16T05:12:00.271Z,11.90
2023-05-16T05:14:46.948Z,11.90
2023-05-16T05:17:34.151Z,11.90
2023-05-16T05:20:21.706Z,12.00
2023-05-16T05:23:08.485Z,12.00
2023-05-16T05:25:55.309Z,12.00
2023-05-16T05:28:45.652Z,12.00
2023-05-16T05:31:37.576Z,12.10
2023-05-16T05:34:24.417Z,12.10
2023-05-16T05:37:11.442Z,12.10
2023-05-16T05:39:58.241Z,12.20
2023-05-16T05:42:46.892Z,12.20
2023-05-16T05:45:34.077Z,12.20
2023-05-16T05:48:21.022Z,12.20
2023-05-16T05:51:07.751Z,12.20
2023-05-16T05:53:54.452Z,12.20
2023-05-16T05:56:41.232Z,12.10
2023-05-16T05:59:28.006Z,12.20
2023-05-16T06:02:14.867Z,12.20
2023-05-16T06:05:01.644Z,12.20
2023-05-16T06:07:48.410Z,12.20
2023-05-16T06:10:35.115Z,12.20
2023-05-16T06:13:22.087Z,12.20
2023-05-16T06:16:09.652Z,12.20
2023-05-16T06:18:56.597Z,12.20
2023-05-16T06:21:43.705Z,12.20
2023-05-16T06:24:30.650Z,12.20
2023-05-16T06:27:17.361Z,12.20
2023-05-16T06:30:04.283Z,12.20
2023-05-16T06:32:51.080Z,12.20
2023-05-16T06:35:37.782Z,12.30
2023-05-16T06:38:24.560Z,12.30
2023-05-16T06:41:11.390Z,12.30
2023-05-16T06:43:58.193Z,12.30
2023-05-16T06:46:45.045Z,12.30
2023-05-16T06:49:31.791Z,12.20
2023-05-16T06:52:18.669Z,12.20
2023-05-16T06:55:05.858Z,12.10
2023-05-16T06:57:52.597Z,12.20
2023-05-16T07:00:39.392Z,12.20
2023-05-16T07:03:26.514Z,12.20
2023-05-16T07:06:13.342Z,12.20
2023-05-16T07:09:00.211Z,12.20
2023-05-16T07:11:47.076Z,12.20
2023-05-16T07:14:33.841Z,12.10
2023-05-16T07:17:20.625Z,12.10
2023-05-16T07:20:08.340Z,12.10
2023-05-16T07:22:57.590Z,12.10
2023-05-16T07:25:44.562Z,12.10
2023-05-16T07:28:31.339Z,12.10
2023-05-16T07:31:18.512Z,12.10
2023-05-16T07:34:05.321Z,12.10
2023-05-16T07:36:52.165Z,12.10
2023-05-16T07:39:39.511Z,12.10
2023-05-16T07:42:26.285Z,12.10
2023-05-16T07:45:13.066Z,12.00
2023-05-16T07:48:00.488Z,12.10
2023-05-16T07:50:47.296Z,12.10
2023-05-16T07:53:34.230Z,12.20
2023-05-16T07:56:21.640Z,12.30
2023-05-16T07:59:08.668Z,12.30
2023-05-16T08:01:56.552Z,12.40
2023-05-16T08:04:43.357Z,12.40
2023-05-16T08:07:32.294Z,12.40
2023-05-16T08:10:19.048Z,12.30
2023-05-16T08:13:06.199Z,12.30
2023-05-16T08:15:53.107Z,12.30
2023-05-16T08:18:39.969Z,12.20
2023-05-16T08:21:26.955Z,12.20
2023-05-16T08:24:13.799Z,12.20
2023-05-16T08:27:00.860Z,12.20
2023-05-16T08:29:47.584Z,12.20
2023-05-16T08:32:34.588Z,12.20
2023-05-16T08:35:21.428Z,12.30
2023-05-16T08:38:08.282Z,12.30
2023-05-16T08:40:54.995Z,12.20
2023-05-16T08:43:41.776Z,12.20
2023-05-16T08:46:29.277Z,12.30
2023-05-16T08:49:17.343Z,12.30
2023-05-16T08:52:04.948Z,12.30
2023-05-16T08:55:09.314Z,12.30
2023-05-16T08:57:59.690Z,12.40
2023-05-16T09:00:46.758Z,12.40
2023-05-16T09:03:33.664Z,12.50
2023-05-16T09:06:20.521Z,12.50
2023-05-16T09:09:09.421Z,12.40
2023-05-16T09:11:56.713Z,12.40
2023-05-16T09:14:43.727Z,12.30
2023-05-16T09:17:42.629Z,12.20
2023-05-16T09:20:29.789Z,12.20
2023-05-16T09:23:24.758Z,12.10
2023-05-16T09:26:11.997Z,12.10
2023-05-16T09:28:59.019Z,12.10
2023-05-16T09:31:45.896Z,12.10
2023-05-16T09:34:37.793Z,12.10
2023-05-16T09:37:24.574Z,12.10
2023-05-16T09:40:11.640Z,12.10
2023-05-16T09:43:02.590Z,12.20
2023-05-16T09:45:49.649Z,12.20
2023-05-16T09:48:36.577Z,12.20
2023-05-16T09:51:23.512Z,12.30
2023-05-16T09:54:10.271Z,12.40
2023-05-16T09:56:57.045Z,12.40
2023-05-16T09:59:45.373Z,12.40
2023-05-16T10:02:32.922Z,12.50
2023-05-16T10:05:19.941Z,12.50
2023-05-16T10:08:06.882Z,12.50
2023-05-16T10:10:56.932Z,12.40
2023-05-16T10:13:49.139Z,12.40
2023-05-16T10:16:36.034Z,12.40
2023-05-16T10:19:25.627Z,12.40
2023-05-16T10:22:13.540Z,12.40
2023-05-16T10:25:39.007Z,12.40
2023-05-16T10:28:25.875Z,12.40
2023-05-16T10:31:12.830Z,12.40
2023-05-16T10:34:00.327Z,12.50
2023-05-16T10:36:47.737Z,12.60
2023-05-16T10:39:34.915Z,12.70
2023-05-16T10:42:21.785Z,12.70
2023-05-16T10:45:18.522Z,12.90
2023-05-16T10:48:06.595Z,13.00
2023-05-16T10:50:53.579Z,13.20
2023-05-16T10:53:40.505Z,13.40
2023-05-16T10:56:27.632Z,13.90
2023-05-16T10:59:25.033Z,14.60
2023-05-16T11:02:22.153Z,15.10
2023-05-16T11:05:13.256Z,15.10
2023-05-16T11:08:05.208Z,14.80
2023-05-16T11:11:11.953Z,14.60
2023-05-16T11:14:03.228Z,14.40
2023-05-16T11:17:10.042Z,14.10
2023-05-16T11:19:59.554Z,14.00
2023-05-16T11:22:46.879Z,14.00
2023-05-16T11:25:41.313Z,14.20
2023-05-16T11:28:28.355Z,14.30
2023-05-16T11:31:15.158Z,14.50
2023-05-16T11:34:02.350Z,14.80
2023-05-16T11:36:49.082Z,15.30
2023-05-16T11:39:36.331Z,15.50
2023-05-16T11:42:23.174Z,15.40
2023-05-16T11:45:15.330Z,15.20
2023-05-16T11:48:04.270Z,15.00
2023-05-16T11:50:51.206Z,14.70
2023-05-16T11:53:38.355Z,14.40
2023-05-16T11:56:25.421Z,14.10
2023-05-16T11:59:12.482Z,13.80
2023-05-16T12:02:03.286Z,13.70
2023-05-16T12:04:50.626Z,13.60
2023-05-16T12:07:38.756Z,13.60
2023-05-16T12:10:25.632Z,13.60
2023-05-16T12:13:12.699Z,13.70
2023-05-16T12:15:59.972Z,13.70
2023-05-16T12:18:47.241Z,13.90
2023-05-16T12:21:34.394Z,14.10
2023-05-16T12:24:21.995Z,14.30
2023-05-16T12:27:08.780Z,14.30
2023-05-16T12:29:58.329Z,14.30
2023-05-16T12:32:45.515Z,14.40
2023-05-16T12:35:33.599Z,14.50
2023-05-16T12:38:20.836Z,14.90
2023-05-16T12:41:07.681Z,15.00
2023-05-16T12:44:09.386Z,14.90
2023-05-16T12:46:58.160Z,15.00
2023-05-16T12:49:46.355Z,15.40
2023-05-16T12:52:33.335Z,16.00
2023-05-16T12:55:20.662Z,16.20
2023-05-16T12:58:08.097Z,16.20
2023-05-16T13:00:54.850Z,16.00
2023-05-16T13:03:41.933Z,15.80
2023-05-16T13:06:30.924Z,15.70
2023-05-16T13:09:23.888Z,15.60
2023-05-16T13:12:10.894Z,15.50
2023-05-16T13:14:57.788Z,15.20
2023-05-16T13:17:44.624Z,14.90
2023-05-16T13:20:31.452Z,14.70
2023-05-16T13:23:18.270Z,14.40
2023-05-16T13:26:05.594Z,14.20
2023-05-16T13:28:54.901Z,14.10
2023-05-16T13:31:41.782Z,14.00
2023-05-16T13:34:28.624Z,14.10
2023-05-16T13:37:16.099Z,14.20
2023-05-16T13:40:05.082Z,14.20
2023-05-16T13:42:52.177Z,14.10
2023-05-16T13:45:39.019Z,14.00
2023-05-16T13:48:26.399Z,13.90
2023-05-16T13:51:13.633Z,13.80
2023-05-16T13:54:00.450Z,13.70
2023-05-16T13:56:47.347Z,13.70
2023-05-16T14:02:26.125Z,13.70
2023-05-16T14:05:13.168Z,13.70
2023-05-16T14:07:59.887Z,13.70
2023-05-16T14:10:46.608Z,13.60
2023-05-16T14:13:33.338Z,13.60
2023-05-16T14:16:20.320Z,13.60
2023-05-16T14:19:07.368Z,13.50
2023-05-16T14:21:54.403Z,13.50
2023-05-16T14:24:41.138Z,13.30
2023-05-16T14:27:27.970Z,13.20
2023-05-16T14:30:14.731Z,13.10
2023-05-16T14:33:03.458Z,13.00
2023-05-16T14:35:50.329Z,13.00
2023-05-16T14:38:37.125Z,13.10
2023-05-16T14:41:23.954Z,13.30
2023-05-16T14:44:10.700Z,13.40
2023-05-16T14:46:57.513Z,13.60
2023-05-16T14:49:44.311Z,13.70
2023-05-16T14:52:30.998Z,13.70
2023-05-16T14:55:17.843Z,13.70
2023-05-16T14:58:05.270Z,13.60
2023-05-16T15:00:52.102Z,13.50
2023-05-16T15:06:29.308Z,13.40
2023-05-16T15:09:16.531Z,13.40
2023-05-16T15:12:03.387Z,13.40
2023-05-16T15:14:50.132Z,13.50
2023-05-16T15:17:37.919Z,13.50
2023-05-16T15:20:26.556Z,13.50
2023-05-16T15:23:13.559Z,13.50
2023-05-16T15:26:00.288Z,13.40
2023-05-16T15:28:47.049Z,13.30
2023-05-16T15:31:33.989Z,13.30
2023-05-16T15:34:20.859Z,13.30
2023-05-16T15:37:07.669Z,13.30
2023-05-16T15:39:54.426Z,13.30
2023-05-16T15:42:44.140Z,13.30
2023-05-16T15:45:31.264Z,13.20
2023-05-16T15:48:18.232Z,13.00
2023-05-16T15:51:05.050Z,12.80
2023-05-16T15:53:52.301Z,12.70
2023-05-16T15:56:39.152Z,12.60
2023-05-16T15:59:26.049Z,12.50
2023-05-16T16:02:12.895Z,12.40
2023-05-16T16:04:59.665Z,12.40
2023-05-16T16:07:46.505Z,12.30
2023-05-16T16:10:35.200Z,12.30
2023-05-16T16:13:23.021Z,12.30
2023-05-16T16:16:09.840Z,12.30
2023-05-16T16:18:56.632Z,12.20
2023-05-16T16:21:43.574Z,12.20
2023-05-16T16:24:30.397Z,12.10
2023-05-16T16:27:17.124Z,12.10
2023-05-16T16:30:04.658Z,12.00
2023-05-16T16:32:51.421Z,12.00
2023-05-16T16:35:38.262Z,12.00
2023-05-16T16:38:24.971Z,12.00
2023-05-16T16:41:12.808Z,12.00
2023-05-16T16:43:59.518Z,11.90
2023-05-16T16:46:46.412Z,11.90
2023-05-16T16:49:33.347Z,11.90
2023-05-16T16:52:20.128Z,11.90
2023-05-16T16:55:09.530Z,11.90
2023-05-16T16:57:56.371Z,11.90
2023-05-16T17:00:43.430Z,12.00
2023-05-16T17:03:30.389Z,12.00
2023-05-16T17:06:17.140Z,12.00
2023-05-16T17:09:06.749Z,12.00
2023-05-16T17:11:53.468Z,12.00
2023-05-16T17:14:42.330Z,11.90
2023-05-16T17:17:29.279Z,11.90
2023-05-16T17:20:16.501Z,11.90
2023-05-16T17:23:05.049Z,11.80
2023-05-16T17:25:51.996Z,11.70
2023-05-16T17:28:41.855Z,11.70
2023-05-16T17:31:28.741Z,11.70
2023-05-16T17:34:15.567Z,11.60
2023-05-16T17:37:04.260Z,11.60
2023-05-16T17:39:52.464Z,11.60
2023-05-16T17:42:39.688Z,11.50
2023-05-16T17:45:26.662Z,11.50
2023-05-16T17:48:13.970Z,11.50
2023-05-16T17:51:06.846Z,11.40
2023-05-16T17:53:54.396Z,11.20
2023-05-16T17:56:42.906Z,11.30
2023-05-16T17:59:30.191Z,11.30
2023-05-16T18:02:17.841Z,11.20
2023-05-16T18:05:06.356Z,11.20
2023-05-16T18:07:59.217Z,11.10
2023-05-16T18:10:51.955Z,11.10
2023-05-16T18:13:42.125Z,11.00
2023-05-16T18:16:29.971Z,10.90
2023-05-16T18:19:18.378Z,10.90
2023-05-16T18:22:07.802Z,10.90
2023-05-16T18:24:54.843Z,10.80
2023-05-16T18:27:41.841Z,10.80
2023-05-16T18:30:30.061Z,10.80
2023-05-16T18:33:17.242Z,10.80
2023-05-16T18:36:04.812Z,10.80
2023-05-16T18:38:51.883Z,10.80
2023-05-16T18:41:40.209Z,10.80
2023-05-16T18:44:27.176Z,10.80
2023-05-16T18:47:17.637Z,10.80
2023-05-16T18:50:10.081Z,10.80
2023-05-16T18:52:57.728Z,10.70
2023-05-16T18:55:48.732Z,10.70
2023-05-16T18:58:38.118Z,10.60
2023-05-16T19:01:25.578Z,10.60
2023-05-16T19:04:12.588Z,10.60
2023-05-16T19:07:00.581Z,10.70
2023-05-16T19:09:48.679Z,10.60
2023-05-16T19:12:35.568Z,10.60
2023-05-16T19:15:22.395Z,10.60
2023-05-16T19:18:09.365Z,10.50
2023-05-16T19:20:58.801Z,10.50
2023-05-16T19:23:46.264Z,10.60
2023-05-16T19:26:33.167Z,10.50
2023-05-16T19:29:21.451Z,10.60
2023-05-16T19:32:08.407Z,10.60
2023-05-16T19:34:55.323Z,10.60
2023-05-16T19:37:42.223Z,10.60
2023-05-16T19:40:29.935Z,10.50
2023-05-16T19:43:16.803Z,10.50
2023-05-16T19:46:03.624Z,10.50
2023-05-16T19:48:51.039Z,10.50
2023-05-16T19:51:41.864Z,10.60
2023-05-16T19:54:29.357Z,10.50
2023-05-16T19:57:16.131Z,10.50
2023-05-16T20:00:05.215Z,10.50
2023-05-16T20:02:52.105Z,10.50
2023-05-16T20:05:38.905Z,10.50
2023-05-16T20:08:25.727Z,10.50
2023-05-16T20:11:13.142Z,10.50
2023-05-16T20:14:00.341Z,10.50
2023-05-16T20:16:47.221Z,10.50
2023-05-16T20:19:35.502Z,10.50
2023-05-16T20:22:22.425Z,10.50
2023-05-16T20:25:10.565Z,10.40
2023-05-16T20:27:57.618Z,10.40
2023-05-16T20:30:44.595Z,10.60
2023-05-16T20:33:31.557Z,10.40
2023-05-16T20:36:18.490Z,10.40
2023-05-16T20:39:06.485Z,10.20
2023-05-16T20:41:53.439Z,10.10
2023-05-16T20:44:40.912Z,10.20
2023-05-16T20:47:28.061Z,10.10
2023-05-16T20:50:15.116Z,10.10
2023-05-16T20:53:05.238Z,10.10
2023-05-16T20:55:51.955Z,10.10
2023-05-16T20:58:42.233Z,10.10
2023-05-16T21:01:29.250Z,10.00
2023-05-16T21:04:16.820Z,10.00
2023-05-16T21:07:04.877Z,10.00
2023-05-16T21:09:52.572Z,10.00
2023-05-16T21:12:39.328Z,10.00
2023-05-16T21:15:26.427Z,9.90
2023-05-16T21:18:13.346Z,9.90
2023-05-16T21:21:00.124Z,9.90
2023-05-16T21:23:47.160Z,9.90
2023-05-16T21:26:33.938Z,9.80
2023-05-16T21:29:21.044Z,9.90
2023-05-16T21:32:09.242Z,9.90
2023-05-16T21:34:56.131Z,9.90
2023-05-16T21:37:42.955Z,9.90
2023-05-16T21:40:29.753Z,9.90
2023-05-16T21:43:16.898Z,9.90
2023-05-16T21:46:03.596Z,9.90
2023-05-16T21:48:50.508Z,9.90
2023-05-16T21:51:37.964Z,9.90
2023-05-16T21:54:24.747Z,9.90
2023-05-16T21:57:11.449Z,9.80
2023-05-16T21:59:58.558Z,9.80
2023-05-16T22:02:45.455Z,9.70
2023-05-16T22:05:32.213Z,9.70
2023-05-16T22:08:18.993Z,9.70
2023-05-16T22:11:05.806Z,9.60
2023-05-16T22:13:53.592Z,9.50
2023-05-16T22:16:42.748Z,9.40
2023-05-16T22:19:36.404Z,9.40
2023-05-16T22:22:41.054Z,9.40
2023-05-16T22:25:28.126Z,9.40
2023-05-16T22:28:16.590Z,9.40
2023-05-16T22:31:05.142Z,9.30
2023-05-16T22:33:53.373Z,9.30
2023-05-16T22:36:46.629Z,9.00
2023-05-16T22:39:37.355Z,9.10
2023-05-16T22:42:24.242Z,9.10
2023-05-16T22:45:11.032Z,9.10
2023-05-16T22:47:57.992Z,9.10
2023-05-16T22:50:44.773Z,9.10
2023-05-16T22:53:31.705Z,9.10
2023-05-16T22:56:18.436Z,9.10
2023-05-16T22:59:05.185Z,9.00
2023-05-16T23:01:51.912Z,9.00
2023-05-16T23:04:38.693Z,9.00
2023-05-16T23:07:25.638Z,9.00
2023-05-16T23:10:12.445Z,9.00
2023-05-16T23:12:59.221Z,9.00
2023-05-16T23:15:45.976Z,9.00
2023-05-16T23:18:33.848Z,8.90
2023-05-16T23:21:20.771Z,8.90
2023-05-16T23:24:08.380Z,9.00
2023-05-16T23:26:55.157Z,9.00
2023-05-16T23:29:42.073Z,8.90
2023-05-16T23:32:29.487Z,8.90
2023-05-16T23:35:16.344Z,8.90
2023-05-16T23:38:03.118Z,8.90
2023-05-16T23:40:49.854Z,8.80
2023-05-16T23:43:36.613Z,8.80
2023-05-16T23:46:23.359Z,8.80
2023-05-16T23:49:10.104Z,8.90
2023-05-16T23:51:58.356Z,8.70
2023-05-16T23:54:45.613Z,8.80
2023-05-16T23:57:32.528Z,8.80
